Rockdale, Iowa
Current Conditions -  °F | °C
As of 1:53 AM on Tuesday 27 Jan 2015 (Local Time) from KDBQ Reporting Station
Overcast Overcast  
Wind Chill: 23°   Ceiling: 3300
Heat Index: 32°   Visibility: 7mi
Dew Point: 28°   Wind: 12mph
Humidity: 85%   Direction: 340°NNW
Pressure: 29.94"   Gusts: NA
Location:  42.549°N, 90.6988°W
Report Text: KDBQ 270753Z AUTO 34010KT 7SM OVC033 00/M02 A2994 RMK AO2 SLP154 T00001022
Loading
Personal Weather Stations






























Interactive Weather Map New forecast layout! Learn more

10-Day Weather Forecast

Advertisements
Track Severe Weather on mobile